X  Fermer Données météorologiques d'aviation de Metar     KSWO Stillwater Regional Airport
Température
°F Température
64°F Point de rosée
61% Humidité



Vent
8 MPH
13 KM/H
4 M/S
7 KTS



60°
ENE
Conditions actuelles

Clair Clair
Pression 1019.62 (hPa) - 30.11 (inHg)
Visibilité 10 (mile) - 16.1 (km)
Aéroport
Code de l'aéroport KSWO

Emplacement: Stillwater Regional Airport
Distance: 4 (mi)

Metar:
KSWO 110553Z AUTO 06007KT 10SM CLR 26/18 A3011 RMK AO2 SLP180 T02560183 10356 20239 403720222 53011

Temps: 08-11-2022 12:53 am CDT